Time;durP1;ratioP1;P1;durP2;ratioP2;P2;SDS_P1;SDS_P2;PMS_P1;PMS_P2;Temp;Humidity;BMP_temperature;BMP_pressure;BME280_temperature;BME280_humidity;BME280_pressure;Samples;Min_cycle;Max_cycle;Signal;HPM_P1;HPM_P2
2022/07/27 00:00:57;;;;;;;13.15;11.25;;;;;;;23.58;51.91;94452.69;5117293;28;20513;-69
2022/07/27 00:03:24;;;;;;;12.23;11.15;;;;;;;23.56;52.06;94458.75;5117698;28;20576;-69
2022/07/27 00:05:51;;;;;;;11.55;10.65;;;;;;;23.59;52.09;94457.06;5120335;28;20214;-69
2022/07/27 00:08:19;;;;;;;12.30;11.30;;;;;;;23.58;51.72;94449.88;5119326;28;20218;-69
2022/07/27 00:10:46;;;;;;;11.68;10.77;;;;;;;23.55;51.93;94457.97;5120074;28;20256;-69
2022/07/27 00:13:13;;;;;;;13.38;12.18;;;;;;;23.50;52.26;94464.19;5119195;28;20562;-69
2022/07/27 00:15:41;;;;;;;12.25;11.27;;;;;;;23.49;52.25;94462.63;5119616;28;20192;-69
2022/07/27 00:18:08;;;;;;;12.00;10.90;;;;;;;23.51;52.56;94470.59;5120184;28;20184;-69
2022/07/27 00:20:35;;;;;;;12.65;11.65;;;;;;;23.54;52.32;94466.88;5119361;28;20188;-69
2022/07/27 00:23:02;;;;;;;12.50;11.40;;;;;;;23.54;52.60;94470.47;5118719;28;20219;-69
2022/07/27 00:25:29;;;;;;;12.60;11.40;;;;;;;23.53;52.35;94474.53;5116764;28;20208;-70
2022/07/27 00:27:56;;;;;;;11.57;10.57;;;;;;;23.50;52.36;94469.81;5116854;28;20253;-69
2022/07/27 00:30:24;;;;;;;11.98;10.98;;;;;;;23.47;51.76;94469.91;5116903;28;20256;-69
2022/07/27 00:32:52;;;;;;;11.82;10.88;;;;;;;23.42;52.20;94471.28;5118081;28;20191;-70
2022/07/27 00:35:19;;;;;;;12.60;11.35;;;;;;;23.37;52.09;94477.47;5117567;28;20203;-70
2022/07/27 00:37:46;;;;;;;11.98;10.98;;;;;;;23.33;52.25;94492.88;5117035;28;20184;-69
2022/07/27 00:40:13;;;;;;;11.77;10.88;;;;;;;23.35;52.75;94485.56;5116832;28;20249;-71
2022/07/27 00:42:40;;;;;;;11.48;10.57;;;;;;;23.38;52.51;94489.50;5115602;28;20218;-70
2022/07/27 00:45:08;;;;;;;12.10;11.10;;;;;;;23.35;52.29;94494.03;5116354;28;20176;-70
2022/07/27 00:47:34;;;;;;;12.45;11.25;;;;;;;23.34;52.71;94500.88;5116314;28;20207;-70
2022/07/27 00:50:03;;;;;;;12.50;11.50;;;;;;;23.30;52.27;94497.38;5116682;28;20203;-70
2022/07/27 00:52:31;;;;;;;12.75;11.50;;;;;;;23.25;52.09;94503.56;5116693;28;20628;-70
2022/07/27 00:54:58;;;;;;;11.70;10.68;;;;;;;23.14;52.41;94497.50;5115569;28;20235;-70
2022/07/27 00:57:26;;;;;;;12.18;11.07;;;;;;;23.09;52.51;94500.84;5116197;28;20200;-70
2022/07/27 00:59:53;;;;;;;12.02;10.77;;;;;;;23.07;52.76;94506.94;5117163;28;20196;-70
2022/07/27 01:02:20;;;;;;;12.73;11.60;;;;;;;23.10;52.80;94503.22;5117121;28;20183;-70
2022/07/27 01:04:47;;;;;;;12.13;11.02;;;;;;;23.05;52.58;94490.47;5116411;28;20195;-70
2022/07/27 01:07:15;;;;;;;11.82;10.82;;;;;;;23.03;52.47;94497.81;5116409;28;20199;-70
2022/07/27 01:09:58;;;;;;;13.18;11.98;;;;;;;23.04;52.15;94497.34;5115272;28;20203;-69
2022/07/27 01:12:26;;;;;;;12.52;11.43;;;;;;;23.02;52.78;94494.22;5115992;28;20202;-69
2022/07/27 01:14:53;;;;;;;11.75;10.75;;;;;;;23.08;52.84;94485.22;5114892;28;20210;-69
2022/07/27 01:17:20;;;;;;;11.75;10.85;;;;;;;23.09;53.06;94492.41;5116057;28;20591;-69
2022/07/27 01:19:48;;;;;;;12.20;11.20;;;;;;;23.09;53.01;94495.22;5115220;28;20199;-69
2022/07/27 01:22:16;;;;;;;12.60;11.50;;;;;;;23.10;52.87;94499.63;5098018;28;20203;-69
2022/07/27 01:24:43;;;;;;;11.27;10.38;;;;;;;23.10;52.64;94502.44;5115159;28;20222;-69
2022/07/27 01:27:11;;;;;;;11.82;10.82;;;;;;;23.09;52.30;94498.81;5115030;28;20192;-69
2022/07/27 01:29:38;;;;;;;12.35;11.35;;;;;;;23.13;51.91;94495.91;5115682;28;20196;-69
2022/07/27 01:32:06;;;;;;;11.77;10.77;;;;;;;23.16;51.58;94517.50;5115047;28;20214;-69
2022/07/27 01:34:33;;;;;;;12.50;11.27;;;;;;;23.17;51.53;94510.66;5115109;28;20199;-69
2022/07/27 01:37:00;;;;;;;13.25;11.80;;;;;;;23.16;51.34;94511.88;5115914;28;20199;-69
2022/07/27 01:39:29;;;;;;;11.75;10.85;;;;;;;23.17;51.52;94514.25;5116114;28;20211;-69
2022/07/27 01:41:56;;;;;;;11.90;10.80;;;;;;;23.19;51.40;94508.97;5116777;28;20252;-70
2022/07/27 01:44:23;;;;;;;11.82;10.75;;;;;;;23.22;51.46;94516.50;5115302;28;20651;-70
2022/07/27 01:46:50;;;;;;;11.40;10.50;;;;;;;23.25;52.16;94509.97;5116135;28;20240;-70
2022/07/27 01:49:17;;;;;;;11.32;10.30;;;;;;;23.23;51.85;94504.00;5114669;28;20212;-70
2022/07/27 01:51:44;;;;;;;13.20;11.93;;;;;;;23.18;51.96;94513.00;5114590;28;20199;-69
2022/07/27 01:54:10;;;;;;;12.75;11.55;;;;;;;23.17;52.21;94511.44;5114447;28;20210;-69
2022/07/27 01:56:38;;;;;;;12.88;11.00;;;;;;;23.18;51.66;94512.22;5115679;28;20184;-69
2022/07/27 01:59:05;;;;;;;10.10;9.18;;;;;;;23.28;49.83;94511.13;5118384;28;20210;-70
2022/07/27 02:01:32;;;;;;;10.82;9.40;;;;;;;23.43;48.10;94509.44;5119485;28;20192;-69
2022/07/27 02:03:59;;;;;;;9.27;7.88;;;;;;;23.54;46.71;94514.72;5119172;28;20211;-70
2022/07/27 02:06:26;;;;;;;8.35;7.65;;;;;;;23.64;45.46;94501.53;5119059;28;20203;-69
2022/07/27 02:08:52;;;;;;;9.18;8.48;;;;;;;23.74;45.40;94504.03;5119078;28;20191;-70
2022/07/27 02:14:04;;;;;;;8.35;7.65;;;;;;;23.87;43.79;94509.66;5118939;28;20195;-69
2022/07/27 02:16:31;;;;;;;8.82;8.02;;;;;;;23.89;44.04;94509.97;5120821;28;20184;-69
2022/07/27 02:18:58;;;;;;;8.48;7.82;;;;;;;23.89;43.97;94512.00;5121245;28;20199;-70
2022/07/27 02:21:25;;;;;;;9.02;8.13;;;;;;;23.88;44.06;94514.03;5120212;28;20207;-70
2022/07/27 02:23:52;;;;;;;9.40;8.48;;;;;;;23.87;44.07;94511.69;5120222;28;20215;-70
2022/07/27 02:26:18;;;;;;;8.75;7.95;;;;;;;23.87;44.37;94517.31;5119050;28;20184;-69
2022/07/27 02:28:45;;;;;;;8.57;7.88;;;;;;;23.85;44.18;94517.75;5118816;28;20197;-69
2022/07/27 02:31:14;;;;;;;9.20;8.38;;;;;;;23.88;44.19;94513.25;5118783;28;20214;-69
2022/07/27 02:33:40;;;;;;;9.35;8.55;;;;;;;23.88;44.24;94516.06;5119484;28;20176;-69
2022/07/27 02:36:08;;;;;;;9.57;8.60;;;;;;;23.83;44.62;94511.81;5119510;28;20187;-69
2022/07/27 02:38:35;;;;;;;8.63;7.75;;;;;;;23.86;43.98;94516.53;5118521;28;20227;-70
2022/07/27 02:41:01;;;;;;;8.93;8.02;;;;;;;23.86;44.17;94519.34;5118130;28;20203;-70
2022/07/27 02:43:28;;;;;;;8.65;7.95;;;;;;;23.88;44.35;94516.06;5117889;28;20690;-69
2022/07/27 02:45:55;;;;;;;8.18;7.47;;;;;;;23.86;43.96;94516.53;5118451;28;20203;-70
2022/07/27 02:48:23;;;;;;;8.57;7.78;;;;;;;23.87;43.63;94523.72;5118062;28;20600;-69
2022/07/27 02:50:50;;;;;;;8.60;7.90;;;;;;;23.86;44.13;94515.75;5118029;28;20199;-70
2022/07/27 02:53:17;;;;;;;8.48;7.78;;;;;;;23.83;43.90;94514.63;5118955;28;20202;-70
2022/07/27 02:55:43;;;;;;;8.70;7.80;;;;;;;23.84;43.89;94518.22;5118910;28;20721;-69
2022/07/27 02:58:10;;;;;;;8.48;7.68;;;;;;;23.82;43.45;94527.13;5119195;28;20258;-70
2022/07/27 03:00:37;;;;;;;8.05;7.35;;;;;;;23.80;44.04;94529.59;5118374;28;20614;-69
2022/07/27 03:03:04;;;;;;;8.48;7.63;;;;;;;23.83;43.88;94527.91;5118577;28;20249;-68
2022/07/27 03:05:32;;;;;;;8.60;7.90;;;;;;;23.81;43.82;94536.00;5117695;28;20199;-69
2022/07/27 03:07:59;;;;;;;8.07;7.47;;;;;;;23.78;43.98;94538.50;5118392;28;20191;-69
2022/07/27 03:10:26;;;;;;;8.85;7.95;;;;;;;23.78;43.91;94540.50;5117781;28;20219;-69
2022/07/27 03:12:52;;;;;;;8.52;7.70;;;;;;;23.80;43.71;94540.88;5117687;28;20199;-69
2022/07/27 03:15:19;;;;;;;8.57;7.88;;;;;;;23.82;43.48;94541.22;5117563;28;20202;-68
2022/07/27 03:17:46;;;;;;;8.90;8.10;;;;;;;23.83;43.55;94537.16;5118453;28;20187;-69
2022/07/27 03:20:13;;;;;;;8.65;7.85;;;;;;;23.83;43.79;94542.78;5117248;28;20202;-68
2022/07/27 03:22:42;;;;;;;7.68;7.05;;;;;;;23.80;43.62;94545.72;5117601;28;20538;-68
2022/07/27 03:25:09;;;;;;;8.43;7.65;;;;;;;23.75;43.86;94553.50;5119234;28;20211;-69
2022/07/27 03:27:36;;;;;;;8.18;7.30;;;;;;;23.71;44.51;94558.44;5119267;28;20180;-69
2022/07/27 03:30:03;;;;;;;8.35;7.55;;;;;;;23.63;44.28;94553.44;5117553;28;20228;-69
2022/07/27 03:32:30;;;;;;;7.80;7.00;;;;;;;23.58;43.97;94545.56;5117395;28;20611;-68
2022/07/27 03:34:57;;;;;;;7.70;7.00;;;;;;;23.51;44.26;94549.41;5118179;28;20187;-69
2022/07/27 03:37:24;;;;;;;8.07;7.38;;;;;;;23.46;44.88;94547.16;5117744;28;20191;-69
2022/07/27 03:39:52;;;;;;;7.60;7.03;;;;;;;23.45;45.20;94551.97;5117981;28;20192;-69
2022/07/27 03:42:18;;;;;;;8.00;7.30;;;;;;;23.43;45.20;94556.50;5118179;28;20183;-68
2022/07/27 03:44:45;;;;;;;8.80;8.05;;;;;;;23.44;45.37;94558.84;5117984;28;20223;-69
2022/07/27 03:47:12;;;;;;;8.13;7.15;;;;;;;23.44;45.64;94563.69;5117888;27;20187;-68
2022/07/27 03:49:39;;;;;;;7.65;7.05;;;;;;;23.48;44.91;94553.88;5117461;28;20196;-68
2022/07/27 03:52:06;;;;;;;8.23;7.40;;;;;;;23.50;45.02;94565.50;5117360;28;20199;-69
2022/07/27 03:54:33;;;;;;;8.43;7.63;;;;;;;23.50;45.48;94562.69;5117976;28;20231;-68
2022/07/27 03:57:02;;;;;;;8.82;7.43;;;;;;;23.54;45.43;94559.75;5117190;28;20203;-68
2022/07/27 03:59:28;;;;;;;7.85;7.15;;;;;;;23.55;45.44;94564.94;5117052;28;20230;-69
2022/07/27 04:01:55;;;;;;;7.82;6.82;;;;;;;23.58;45.10;94562.47;5117320;28;20199;-69
2022/07/27 04:04:22;;;;;;;8.40;7.65;;;;;;;23.58;45.84;94563.25;5116852;28;20223;-69
2022/07/27 04:06:48;;;;;;;7.68;6.72;;;;;;;23.59;45.93;94559.19;5116870;28;20196;-69
2022/07/27 04:09:15;;;;;;;7.70;6.97;;;;;;;23.59;46.70;94558.41;5117442;28;20198;-69
2022/07/27 04:11:43;;;;;;;8.15;7.28;;;;;;;23.59;47.06;94561.22;5116646;28;20187;-69
2022/07/27 04:14:11;;;;;;;8.40;7.53;;;;;;;23.60;46.76;94565.59;5116831;28;20191;-69
2022/07/27 04:16:38;;;;;;;8.10;7.30;;;;;;;23.61;47.06;94570.00;5116350;28;20191;-69
2022/07/27 04:19:06;;;;;;;7.07;6.25;;;;;;;23.62;46.84;94569.56;5117070;28;20188;-69
2022/07/27 04:21:33;;;;;;;7.78;7.07;;;;;;;23.65;46.95;94570.69;5117624;28;20200;-69
2022/07/27 04:24:00;;;;;;;7.97;7.28;;;;;;;23.66;47.11;94563.81;5117416;28;20216;-69
2022/07/27 04:26:27;;;;;;;8.95;7.63;;;;;;;23.67;46.74;94576.66;5117734;28;20195;-69
2022/07/27 04:28:53;;;;;;;8.23;7.43;;;;;;;23.72;46.89;94576.91;5117754;28;20207;-69
2022/07/27 04:31:22;;;;;;;9.05;6.90;;;;;;;23.77;46.99;94572.72;5117417;28;20199;-69
2022/07/27 04:33:49;;;;;;;8.57;7.00;;;;;;;23.80;47.44;94577.47;5116834;28;20196;-69
2022/07/27 04:36:15;;;;;;;7.30;6.55;;;;;;;23.83;47.92;94570.94;5116027;28;20615;-70
2022/07/27 04:38:42;;;;;;;9.50;7.65;;;;;;;23.89;48.07;94585.22;5115583;28;20635;-68
2022/07/27 04:41:09;;;;;;;7.85;7.00;;;;;;;23.91;47.87;94588.38;5115615;28;20195;-68
2022/07/27 04:43:36;;;;;;;7.53;6.75;;;;;;;23.94;48.02;94579.03;5116673;28;20196;-68
2022/07/27 04:46:03;;;;;;;9.35;7.00;;;;;;;23.95;48.13;94586.25;5115840;28;20293;-68
2022/07/27 04:48:31;;;;;;;8.38;7.50;;;;;;;23.95;48.21;94589.84;5115974;28;20188;-68
2022/07/27 04:50:59;;;;;;;9.60;7.43;;;;;;;23.96;48.75;94590.63;5115668;28;20192;-68
2022/07/27 04:53:26;;;;;;;9.55;7.45;;;;;;;24.02;48.79;94600.09;5115392;28;20204;-68
2022/07/27 04:55:53;;;;;;;7.75;7.00;;;;;;;24.03;48.96;94599.63;5116117;28;20258;-68
2022/07/27 04:58:19;;;;;;;8.45;7.40;;;;;;;24.08;48.86;94597.50;5116467;28;20226;-68
2022/07/27 05:00:46;;;;;;;7.75;7.05;;;;;;;24.10;49.49;94598.63;5115147;28;20646;-68
2022/07/27 05:03:13;;;;;;;7.47;6.65;;;;;;;24.13;49.67;94611.81;5116414;28;20180;-68
2022/07/27 05:05:42;;;;;;;8.80;7.55;;;;;;;24.18;49.40;94608.44;5115516;28;20219;-68
2022/07/27 05:08:09;;;;;;;10.88;7.35;;;;;;;24.25;49.29;94615.84;5115154;28;20187;-68
2022/07/27 05:10:36;;;;;;;7.57;6.88;;;;;;;24.25;49.92;94619.44;5115605;28;20199;-67
2022/07/27 05:13:03;;;;;;;8.32;7.22;;;;;;;24.30;49.69;94618.09;5116219;28;20201;-67
2022/07/27 05:15:30;;;;;;;7.95;7.25;;;;;;;24.29;49.71;94616.50;5116368;28;20184;-69
2022/07/27 05:18:00;;;;;;;8.05;7.35;;;;;;;24.28;49.97;94623.41;5117488;28;20631;-68
2022/07/27 05:20:27;;;;;;;8.63;7.80;;;;;;;24.29;50.01;94621.34;5116434;28;20192;-68
2022/07/27 05:22:55;;;;;;;7.53;6.88;;;;;;;24.27;50.56;94616.97;5116587;28;20205;-68
2022/07/27 05:25:24;;;;;;;10.10;7.28;;;;;;;24.25;50.05;94613.81;5116031;28;20215;-68
2022/07/27 05:27:51;;;;;;;7.20;6.57;;;;;;;24.25;50.62;94613.03;5117717;28;20219;-68
2022/07/27 05:30:18;;;;;;;12.35;8.07;;;;;;;24.26;50.75;94608.97;5117548;28;20199;-68
2022/07/27 05:32:45;;;;;;;8.95;7.78;;;;;;;24.24;51.14;94617.88;5114795;28;20220;-68
2022/07/27 05:35:12;;;;;;;8.10;7.30;;;;;;;24.21;51.21;94618.00;5117838;28;20180;-68
2022/07/27 05:37:39;;;;;;;8.65;7.78;;;;;;;24.17;51.43;94620.13;5118902;28;20256;-68
2022/07/27 05:40:10;;;;;;;8.57;7.60;;;;;;;24.21;51.38;94620.81;5117520;28;20199;-68
2022/07/27 05:42:37;;;;;;;9.23;7.50;;;;;;;24.19;51.36;94614.84;5115349;28;20607;-68
2022/07/27 05:45:04;;;;;;;8.75;7.90;;;;;;;24.20;51.66;94622.06;5117488;28;20219;-68
2022/07/27 05:47:31;;;;;;;9.13;8.23;;;;;;;24.21;51.69;94621.59;5117137;28;20190;-68
2022/07/27 05:49:57;;;;;;;10.30;7.95;;;;;;;24.25;51.37;94625.06;5117784;28;20550;-69
2022/07/27 05:52:24;;;;;;;7.95;7.15;;;;;;;24.29;51.38;94622.16;5118685;28;20198;-69
2022/07/27 05:54:51;;;;;;;9.18;8.10;;;;;;;24.34;51.70;94620.81;5118142;28;20242;-68
2022/07/27 05:57:21;;;;;;;9.40;7.55;;;;;;;24.38;51.76;94632.75;5121561;28;20183;-68
2022/07/27 05:59:53;;;;;;;8.70;7.72;;;;;;;24.38;51.67;94629.94;5118318;28;20494;-70
2022/07/27 06:02:19;;;;;;;8.63;7.82;;;;;;;24.37;51.72;94626.31;5116643;28;20241;-70
2022/07/27 06:04:46;;;;;;;8.13;7.18;;;;;;;24.35;51.93;94628.00;5115953;28;20212;-70
2022/07/27 06:09:58;;;;;;;9.15;8.27;;;;;;;24.35;52.41;94625.19;5117216;28;20274;-70
2022/07/27 06:12:26;;;;;;;9.43;7.90;;;;;;;24.29;51.79;94621.34;5116073;28;20198;-70
2022/07/27 06:14:53;;;;;;;8.65;7.82;;;;;;;24.27;51.86;94619.00;5115333;28;20195;-68
2022/07/27 06:17:19;;;;;;;8.95;8.05;;;;;;;24.29;52.24;94624.19;5115083;28;20200;-68
2022/07/27 06:19:46;;;;;;;8.00;7.28;;;;;;;24.30;52.15;94620.91;5115431;28;20198;-68
2022/07/27 06:22:13;;;;;;;7.72;7.03;;;;;;;24.38;52.03;94627.09;5116473;28;20253;-69
2022/07/27 06:24:40;;;;;;;11.02;6.95;;;;;;;24.42;51.67;94628.59;5114999;28;20215;-68
2022/07/27 06:27:06;;;;;;;11.27;7.75;;;;;;;24.49;52.00;94625.53;5115174;28;20196;-68
2022/07/27 06:29:35;;;;;;;9.10;7.10;;;;;;;24.57;51.66;94631.72;5116335;28;20210;-68
2022/07/27 06:32:02;;;;;;;7.60;6.80;;;;;;;24.59;51.65;94632.06;5114939;28;20201;-68
2022/07/27 06:34:28;;;;;;;10.15;8.18;;;;;;;24.59;51.28;94629.25;5115924;28;20192;-68
2022/07/27 06:36:58;;;;;;;9.15;7.88;;;;;;;24.53;51.43;94638.72;5115329;28;20199;-68
2022/07/27 06:39:24;;;;;;;9.20;7.28;;;;;;;24.55;51.65;94634.22;5115195;28;20196;-68
2022/07/27 06:41:51;;;;;;;9.55;7.82;;;;;;;24.64;51.78;94639.94;5116469;28;20237;-68
2022/07/27 06:44:18;;;;;;;10.60;7.50;;;;;;;24.68;51.13;94639.81;5114487;28;20192;-68
2022/07/27 06:46:47;;;;;;;8.32;7.45;;;;;;;24.67;51.43;94638.25;5117871;28;20188;-68
2022/07/27 06:49:14;;;;;;;11.48;7.22;;;;;;;24.64;51.25;94630.69;5119473;28;20191;-67
2022/07/27 06:51:41;;;;;;;9.45;7.32;;;;;;;24.73;51.53;94633.59;5118344;28;20624;-67
2022/07/27 06:54:09;;;;;;;8.02;7.18;;;;;;;24.80;51.06;94641.00;5118523;28;20199;-68
2022/07/27 06:56:37;;;;;;;9.20;7.85;;;;;;;24.84;50.91;94639.66;5118607;28;20195;-69
2022/07/27 06:59:04;;;;;;;11.27;7.20;;;;;;;24.84;50.69;94639.66;5118300;28;20192;-68
2022/07/27 07:01:31;;;;;;;10.80;7.03;;;;;;;24.86;50.61;94628.69;5118417;28;20214;-68
2022/07/27 07:03:59;;;;;;;8.38;7.47;;;;;;;24.86;50.84;94625.88;5118238;28;20199;-67
2022/07/27 07:06:26;;;;;;;8.70;7.80;;;;;;;24.87;50.64;94618.19;5120007;28;20200;-68
2022/07/27 07:08:53;;;;;;;8.85;7.95;;;;;;;24.85;50.67;94621.47;5121094;28;20192;-68
2022/07/27 07:11:20;;;;;;;8.55;7.65;;;;;;;24.87;50.63;94624.63;5119185;28;20218;-68
2022/07/27 07:13:46;;;;;;;8.20;7.38;;;;;;;24.91;50.67;94621.66;5119466;28;20196;-68
2022/07/27 07:16:14;;;;;;;8.20;7.43;;;;;;;24.96;51.01;94621.09;5119243;28;20184;-68
2022/07/27 07:18:40;;;;;;;8.68;7.20;;;;;;;25.01;50.51;94625.38;5118552;28;20191;-68
2022/07/27 07:21:09;;;;;;;8.85;7.60;;;;;;;25.01;50.46;94620.50;5120065;28;20192;-69
2022/07/27 07:23:36;;;;;;;10.98;8.13;;;;;;;25.03;50.42;94617.25;5119330;28;20180;-68
2022/07/27 07:26:03;;;;;;;9.18;8.27;;;;;;;25.05;50.67;94611.91;5119438;28;20210;-68
2022/07/27 07:28:29;;;;;;;8.93;8.02;;;;;;;25.04;50.24;94613.16;5118347;28;20192;-68
2022/07/27 07:30:57;;;;;;;10.32;8.32;;;;;;;25.04;49.58;94616.78;5118147;28;20187;-69
2022/07/27 07:33:23;;;;;;;8.63;7.80;;;;;;;25.05;49.63;94609.88;5118950;28;20184;-68
2022/07/27 07:35:50;;;;;;;7.95;7.22;;;;;;;25.06;49.17;94611.47;5118480;28;20190;-68
2022/07/27 07:38:24;;;;;;;8.32;7.47;;;;;;;25.09;49.17;94604.91;5118380;28;20199;-69
2022/07/27 07:40:51;;;;;;;8.65;7.78;;;;;;;25.13;49.22;94613.28;5118222;28;20218;-69
2022/07/27 07:43:18;;;;;;;8.48;7.53;;;;;;;25.16;49.21;94596.22;5117082;28;20208;-67
2022/07/27 07:45:45;;;;;;;10.07;7.65;;;;;;;25.21;49.61;94608.94;5118108;28;20212;-67
2022/07/27 07:48:12;;;;;;;8.57;7.70;;;;;;;25.30;49.58;94600.53;5118243;28;20180;-67
2022/07/27 07:50:39;;;;;;;7.90;7.20;;;;;;;25.37;48.70;94610.78;5117089;28;20196;-67
2022/07/27 07:53:06;;;;;;;8.50;7.63;;;;;;;25.38;48.35;94603.88;5117728;28;20184;-68
2022/07/27 07:55:34;;;;;;;8.10;7.32;;;;;;;25.38;47.60;94604.69;5116390;28;20224;-68
2022/07/27 07:58:01;;;;;;;9.18;8.32;;;;;;;25.42;48.06;94615.84;5117417;28;20216;-67
2022/07/27 08:00:29;;;;;;;10.63;8.20;;;;;;;25.49;48.31;94604.28;5117747;28;20188;-69
2022/07/27 08:02:57;;;;;;;9.57;8.57;;;;;;;25.54;48.52;94620.59;5117525;28;20184;-68
2022/07/27 08:05:24;;;;;;;9.57;8.48;;;;;;;25.59;48.68;94610.75;5117774;28;20211;-68
2022/07/27 08:07:52;;;;;;;9.18;8.02;;;;;;;25.60;48.55;94613.13;5116908;28;20200;-68
2022/07/27 08:10:20;;;;;;;8.65;7.85;;;;;;;25.65;48.45;94606.88;5116811;28;20211;-68
2022/07/27 08:12:50;;;;;;;9.32;7.18;;;;;;;25.75;48.33;94602.06;5117590;28;20199;-69
2022/07/27 08:15:18;;;;;;;8.88;7.63;;;;;;;25.84;48.08;94604.94;5116694;28;20206;-68
2022/07/27 08:17:45;;;;;;;8.95;8.05;;;;;;;25.92;48.28;94596.97;5117534;28;20184;-69
2022/07/27 08:20:16;;;;;;;8.43;7.63;;;;;;;25.98;47.88;94597.16;5117925;28;20191;-67
2022/07/27 08:22:43;;;;;;;10.18;7.38;;;;;;;26.05;48.06;94608.97;5116843;28;20200;-68
2022/07/27 08:25:11;;;;;;;8.88;8.07;;;;;;;26.12;47.07;94599.41;5116272;28;20310;-67
2022/07/27 08:27:38;;;;;;;9.00;7.43;;;;;;;26.14;47.90;94603.34;5117172;28;20527;-67
2022/07/27 08:30:08;;;;;;;9.10;8.07;;;;;;;26.22;46.82;94598.19;5116949;28;20237;-67
2022/07/27 08:32:46;;;;;;;9.15;8.25;;;;;;;26.33;46.60;94594.94;5116863;28;20184;-68
2022/07/27 08:35:16;;;;;;;8.95;7.05;;;;;;;26.38;47.10;94591.47;5116271;28;20504;-67
2022/07/27 08:37:43;;;;;;;7.95;7.22;;;;;;;26.41;46.58;94591.31;5116229;28;20207;-67
2022/07/27 08:40:12;;;;;;;8.95;7.63;;;;;;;26.46;46.19;94595.59;5116194;28;20183;-67
2022/07/27 08:42:41;;;;;;;9.00;7.28;;;;;;;26.53;45.73;94592.47;5116762;28;20207;-67
2022/07/27 08:45:12;;;;;;;8.30;7.45;;;;;;;26.70;44.32;94586.53;5116697;28;20571;-67
2022/07/27 08:47:40;;;;;;;8.30;7.50;;;;;;;26.83;44.75;94590.00;5116183;28;20188;-67
2022/07/27 08:50:22;;;;;;;8.05;7.35;;;;;;;26.85;44.80;94579.00;5117679;28;20196;-68
2022/07/27 08:52:51;;;;;;;8.82;7.35;;;;;;;26.85;45.93;94591.09;5117261;28;20195;-67
2022/07/27 08:55:18;;;;;;;8.88;7.47;;;;;;;26.93;44.58;94577.41;5116012;28;20231;-66
2022/07/27 08:57:45;;;;;;;8.30;7.38;;;;;;;26.98;44.01;94582.47;5116691;28;20180;-66
2022/07/27 09:00:15;;;;;;;8.50;7.72;;;;;;;27.08;45.09;94572.69;5115953;28;20191;-68
2022/07/27 09:02:42;;;;;;;8.15;7.45;;;;;;;27.22;45.60;94568.47;5116400;28;20211;-69
2022/07/27 09:05:10;;;;;;;8.73;7.93;;;;;;;27.31;44.06;94574.13;5116482;28;20192;-69
2022/07/27 09:07:37;;;;;;;8.27;7.57;;;;;;;27.39;44.46;94571.75;5116157;28;20655;-68
2022/07/27 09:10:05;;;;;;;10.05;8.35;;;;;;;27.55;42.70;94565.72;5115572;28;20282;-69
2022/07/27 09:12:33;;;;;;;8.88;7.47;;;;;;;27.68;43.02;94564.75;5116087;28;20203;-69
2022/07/27 09:15:06;;;;;;;9.00;7.70;;;;;;;27.69;42.37;94555.00;5116158;28;20210;-66
2022/07/27 09:17:35;;;;;;;8.50;7.68;;;;;;;27.72;43.02;94559.69;5116319;28;20187;-69
2022/07/27 09:20:05;;;;;;;9.02;8.07;;;;;;;27.76;43.80;94560.34;5115888;28;20214;-68
2022/07/27 09:22:39;;;;;;;8.50;7.70;;;;;;;27.78;43.63;94560.66;5117425;28;20196;-68
2022/07/27 09:25:07;;;;;;;11.68;7.75;;;;;;;27.92;41.96;94557.13;5116912;28;20187;-68
2022/07/27 09:27:34;;;;;;;8.55;7.75;;;;;;;28.15;41.38;94560.50;5117838;28;20206;-67
2022/07/27 09:30:02;;;;;;;8.52;7.75;;;;;;;28.21;41.32;94555.72;5115753;28;20289;-68
2022/07/27 09:32:28;;;;;;;9.45;7.78;;;;;;;28.35;39.57;94557.06;5117004;28;20191;-68
2022/07/27 09:34:57;;;;;;;8.93;8.02;;;;;;;28.46;38.43;94560.19;5116816;28;20195;-69
2022/07/27 09:37:25;;;;;;;8.80;8.00;;;;;;;28.53;38.61;94557.75;5117250;28;20665;-68
2022/07/27 09:40:09;;;;;;;9.57;8.68;;;;;;;28.49;39.14;94557.16;5116553;28;20184;-69
2022/07/27 09:42:36;;;;;;;8.43;7.68;;;;;;;28.57;38.12;94553.97;5115955;28;20188;-68
2022/07/27 09:45:03;;;;;;;8.80;7.65;;;;;;;28.66;38.62;94548.25;5116617;28;20269;-69
2022/07/27 09:47:31;;;;;;;9.25;8.35;;;;;;;28.68;38.44;94549.31;5119387;28;20204;-69
2022/07/27 09:50:18;;;;;;;9.48;7.95;;;;;;;28.75;38.56;94540.44;5118047;28;20206;-68
2022/07/27 09:52:45;;;;;;;8.98;8.00;;;;;;;28.69;39.66;94542.38;5116611;28;20202;-69
2022/07/27 09:55:12;;;;;;;8.50;7.72;;;;;;;28.64;40.00;94537.34;5114260;28;20240;-68
2022/07/27 09:57:51;;;;;;;8.25;7.45;;;;;;;28.71;36.88;94545.50;5115855;28;20172;-68
2022/07/27 10:00:19;;;;;;;8.57;7.70;;;;;;;28.83;36.86;94542.88;5115649;28;20184;-68
2022/07/27 10:02:46;;;;;;;9.00;8.20;;;;;;;29.01;37.86;94540.72;5114431;28;20199;-69
2022/07/27 10:05:16;;;;;;;8.52;7.72;;;;;;;29.15;36.89;94535.53;5114392;28;20219;-69
2022/07/27 10:07:45;;;;;;;8.43;7.65;;;;;;;29.32;36.14;94528.13;5115346;28;20207;-69
2022/07/27 10:10:12;;;;;;;8.60;7.80;;;;;;;29.31;37.34;94534.31;5115370;28;20197;-68
2022/07/27 10:12:40;;;;;;;8.80;7.97;;;;;;;29.17;37.36;94528.13;5114523;28;20580;-69
2022/07/27 10:15:08;;;;;;;9.15;7.97;;;;;;;29.14;36.92;94522.63;5114521;28;20337;-69
2022/07/27 10:17:37;;;;;;;8.45;7.65;;;;;;;29.07;37.61;94528.69;5114319;28;20294;-69
2022/07/27 10:20:07;;;;;;;9.23;8.13;;;;;;;29.05;37.18;94525.53;5115708;28;20184;-68
2022/07/27 10:22:58;;;;;;;9.13;8.25;;;;;;;29.18;36.55;94526.06;5119338;28;20191;-69
2022/07/27 10:25:29;;;;;;;8.98;8.13;;;;;;;29.19;37.30;94524.78;5112892;28;20207;-67
2022/07/27 10:28:09;;;;;;;8.70;7.90;;;;;;;29.16;37.47;94520.06;5119854;28;20192;-68
2022/07/27 10:30:36;;;;;;;9.13;8.23;;;;;;;29.15;35.88;94521.34;5117912;28;20218;-68
2022/07/27 10:33:13;;;;;;;9.50;8.63;;;;;;;29.24;36.68;94521.28;5119069;28;20646;-67
2022/07/27 10:35:40;;;;;;;9.65;8.68;;;;;;;29.41;36.56;94519.53;5119365;28;20184;-67
2022/07/27 10:38:10;;;;;;;9.45;8.60;;;;;;;29.59;36.24;94512.06;5119701;28;20190;-67
2022/07/27 10:40:38;;;;;;;9.85;8.90;;;;;;;29.76;34.90;94509.53;5118538;28;20207;-67
2022/07/27 10:43:10;;;;;;;9.32;8.43;;;;;;;29.76;35.18;94515.97;5118132;28;20196;-68
2022/07/27 10:45:41;;;;;;;8.88;8.07;;;;;;;29.72;36.33;94504.81;5119123;28;20187;-67
2022/07/27 10:48:08;;;;;;;9.30;8.43;;;;;;;29.73;36.34;94508.44;5118984;28;20207;-67
2022/07/27 10:50:35;;;;;;;9.63;8.82;;;;;;;29.73;36.64;94509.22;5119274;28;20195;-68
2022/07/27 10:53:18;;;;;;;9.15;8.45;;;;;;;29.85;35.97;94509.41;5118201;28;20203;-67
2022/07/27 10:55:49;;;;;;;9.23;8.35;;;;;;;29.94;36.03;94503.59;5115037;28;20239;-68
2022/07/27 10:58:46;;;;;;;9.65;8.75;;;;;;;30.03;35.11;94497.00;5120552;28;20668;-68
2022/07/27 11:01:14;;;;;;;10.35;9.18;;;;;;;30.21;34.29;94488.25;5126438;28;20261;-68
2022/07/27 11:03:41;;;;;;;9.95;9.05;;;;;;;30.34;34.41;94485.84;5121306;28;20184;-68
2022/07/27 11:06:11;;;;;;;9.98;9.00;;;;;;;30.37;33.76;94484.84;5120311;28;20550;-68
2022/07/27 11:08:41;;;;;;;9.63;8.82;;;;;;;30.31;34.10;94486.06;5119633;28;20208;-68
2022/07/27 11:11:09;;;;;;;10.10;9.20;;;;;;;30.28;35.56;94484.97;5119045;28;20203;-68
2022/07/27 11:13:37;;;;;;;9.68;8.88;;;;;;;30.30;34.59;94481.66;5119285;28;20203;-67
2022/07/27 11:16:06;;;;;;;10.05;9.15;;;;;;;30.37;33.93;94476.31;5121048;28;20223;-68
2022/07/27 11:18:35;;;;;;;10.57;9.57;;;;;;;30.49;34.30;94467.94;5119668;28;20188;-68
2022/07/27 11:21:16;;;;;;;9.20;8.40;;;;;;;30.59;34.99;94467.28;5120352;28;20248;-68
2022/07/27 11:23:45;;;;;;;9.05;8.25;;;;;;;30.63;34.68;94469.91;5120217;28;20203;-68
2022/07/27 11:26:16;;;;;;;9.13;8.32;;;;;;;30.70;34.30;94478.81;5120662;28;20218;-68
2022/07/27 11:28:43;;;;;;;10.30;9.40;;;;;;;30.73;33.94;94464.88;5122332;28;20202;-67
2022/07/27 11:31:15;;;;;;;9.43;8.65;;;;;;;30.95;33.16;94462.28;5121116;28;20196;-68
2022/07/27 11:33:52;;;;;;;10.25;9.27;;;;;;;31.03;33.48;94459.78;5120167;28;20199;-68
2022/07/27 11:36:20;;;;;;;10.32;9.32;;;;;;;30.87;34.31;94464.03;5121459;28;20543;-68
2022/07/27 11:38:51;;;;;;;9.63;8.73;;;;;;;30.85;33.42;94455.19;5118944;28;20191;-69